createdAt,value
2023-05-12T00:00:11.527Z,0.30
2023-05-12T00:02:58.952Z,0.30
2023-05-12T00:05:26.376Z,0.40
2023-05-12T00:07:53.707Z,0.30
2023-05-12T00:10:21.392Z,0.30
2023-05-12T00:12:49.251Z,0.40
2023-05-12T00:15:17.860Z,0.40
2023-05-12T00:17:45.325Z,0.40
2023-05-12T00:20:12.828Z,0.50
2023-05-12T00:22:41.463Z,0.20
2023-05-12T00:25:09.000Z,0.50
2023-05-12T00:27:36.317Z,0.40
2023-05-12T00:30:04.206Z,0.50
2023-05-12T00:32:32.286Z,0.30
2023-05-12T00:34:59.884Z,0.30
2023-05-12T00:37:28.110Z,0.50
2023-05-12T00:39:55.526Z,0.60
2023-05-12T00:42:22.937Z,0.40
2023-05-12T00:44:50.526Z,0.50
2023-05-12T00:47:20.207Z,0.40
2023-05-12T00:49:47.643Z,0.50
2023-05-12T00:52:15.045Z,0.60
2023-05-12T00:54:44.233Z,0.50
2023-05-12T00:57:12.599Z,0.60
2023-05-12T00:59:40.390Z,0.60
2023-05-12T01:02:11.129Z,0.60
2023-05-12T01:04:39.699Z,0.40
2023-05-12T01:07:12.568Z,0.40
2023-05-12T01:09:40.011Z,0.10
2023-05-12T01:12:07.533Z,0.30
2023-05-12T01:14:34.918Z,0.50
2023-05-12T01:17:09.938Z,0.60
2023-05-12T01:19:54.633Z,0.40
2023-05-12T01:22:23.991Z,0.30
2023-05-12T01:24:55.713Z,0.50
2023-05-12T01:27:25.772Z,0.30
2023-05-12T01:29:55.752Z,0.30
2023-05-12T01:32:23.763Z,0.50
2023-05-12T01:34:51.159Z,0.40
2023-05-12T01:37:19.044Z,0.20
2023-05-12T01:39:46.480Z,0.50
2023-05-12T01:42:13.918Z,0.50
2023-05-12T01:44:41.289Z,0.40
2023-05-12T01:47:10.906Z,0.40
2023-05-12T01:49:38.273Z,0.40
2023-05-12T01:52:06.145Z,0.30
2023-05-12T01:54:33.507Z,0.40
2023-05-12T01:57:00.770Z,0.50
2023-05-12T01:59:28.464Z,0.60
2023-05-12T02:01:55.976Z,0.30
2023-05-12T02:04:23.409Z,0.30
2023-05-12T02:06:51.857Z,0.50
2023-05-12T02:09:19.356Z,0.40
2023-05-12T02:11:46.651Z,0.20
2023-05-12T02:14:14.041Z,0.20
2023-05-12T02:16:41.485Z,0.50
2023-05-12T02:19:09.028Z,0.40
2023-05-12T02:21:36.374Z,0.40
2023-05-12T02:24:03.866Z,0.40
2023-05-12T02:26:31.226Z,0.50
2023-05-12T02:28:58.608Z,0.60
2023-05-12T02:31:26.298Z,0.40
2023-05-12T02:33:53.831Z,0.30
2023-05-12T02:36:21.207Z,0.60
2023-05-12T02:38:48.754Z,0.50
2023-05-12T02:41:16.632Z,0.50
2023-05-12T02:43:44.022Z,0.30
2023-05-12T02:46:11.428Z,0.30
2023-05-12T02:48:38.851Z,0.40
2023-05-12T02:51:06.130Z,0.30
2023-05-12T02:53:33.476Z,0.30
2023-05-12T02:56:01.305Z,0.30
2023-05-12T02:58:29.326Z,0.40
2023-05-12T03:01:06.752Z,0.50
2023-05-12T03:03:38.885Z,0.70
2023-05-12T03:06:07.260Z,0.40
2023-05-12T03:08:34.615Z,0.40
2023-05-12T03:11:01.984Z,0.50
2023-05-12T03:13:29.218Z,0.30
2023-05-12T03:16:00.934Z,0.40
2023-05-12T03:18:28.882Z,0.50
2023-05-12T03:20:56.536Z,0.50
2023-05-12T03:23:24.485Z,0.40
2023-05-12T03:25:51.977Z,0.60
2023-05-12T03:28:19.835Z,0.50
2023-05-12T03:30:47.197Z,0.40
2023-05-12T03:33:14.484Z,0.50
2023-05-12T03:35:42.376Z,0.70
2023-05-12T03:38:09.715Z,0.60
2023-05-12T03:40:37.085Z,0.60
2023-05-12T03:43:04.392Z,0.60
2023-05-12T03:45:31.735Z,0.40
2023-05-12T03:47:59.007Z,0.50
2023-05-12T03:50:26.346Z,0.40
2023-05-12T03:52:55.867Z,0.40
2023-05-12T03:55:23.307Z,0.80
2023-05-12T03:57:50.704Z,0.50
2023-05-12T04:00:19.011Z,0.60
2023-05-12T04:02:46.813Z,0.50
2023-05-12T04:05:14.405Z,0.50
2023-05-12T04:07:41.947Z,0.60
2023-05-12T04:10:09.462Z,0.70
2023-05-12T04:12:36.886Z,0.60
2023-05-12T04:15:05.924Z,0.60
2023-05-12T04:17:33.407Z,0.70
2023-05-12T04:20:00.857Z,0.70
2023-05-12T04:22:28.219Z,0.60
2023-05-12T04:24:55.499Z,0.60
2023-05-12T04:27:23.127Z,0.50
2023-05-12T04:29:51.616Z,0.60
2023-05-12T04:32:19.087Z,0.60
2023-05-12T04:34:47.907Z,0.60
2023-05-12T04:39:42.338Z,0.50
2023-05-12T04:42:09.725Z,0.50
2023-05-12T04:44:37.050Z,0.30
2023-05-12T04:47:04.549Z,0.60
2023-05-12T04:49:31.930Z,0.50
2023-05-12T04:51:59.246Z,0.50
2023-05-12T04:54:26.694Z,0.60
2023-05-12T04:56:54.097Z,0.70
2023-05-12T04:59:21.697Z,0.70
2023-05-12T05:01:49.436Z,0.70
2023-05-12T05:04:17.020Z,0.70
2023-05-12T05:06:44.417Z,0.60
2023-05-12T05:09:11.802Z,0.90
2023-05-12T05:11:39.182Z,0.60
2023-05-12T05:14:06.653Z,0.60
2023-05-12T05:16:34.224Z,0.70
2023-05-12T05:19:05.910Z,0.80
2023-05-12T05:21:34.318Z,0.70
2023-05-12T05:24:01.674Z,0.60
2023-05-12T05:26:29.085Z,0.70
2023-05-12T05:28:56.663Z,0.70
2023-05-12T05:31:24.229Z,0.60
2023-05-12T05:33:51.765Z,0.50
2023-05-12T05:36:19.402Z,0.60
2023-05-12T05:38:46.848Z,0.60
2023-05-12T05:41:14.274Z,0.70
2023-05-12T05:43:41.596Z,0.80
2023-05-12T05:46:09.055Z,0.70
2023-05-12T05:48:36.397Z,0.60
2023-05-12T05:51:05.699Z,0.60
2023-05-12T05:53:33.253Z,0.50
2023-05-12T05:56:01.462Z,0.80
2023-05-12T05:58:29.122Z,0.60
2023-05-12T06:00:56.537Z,0.80
2023-05-12T06:03:23.922Z,0.60
2023-05-12T06:05:51.580Z,0.50
2023-05-12T06:08:19.498Z,0.70
2023-05-12T06:10:46.942Z,0.50
2023-05-12T06:13:14.353Z,0.70
2023-05-12T06:15:41.869Z,0.70
2023-05-12T06:18:09.459Z,0.60
2023-05-12T06:20:36.897Z,0.60
2023-05-12T06:23:05.339Z,0.60
2023-05-12T06:25:33.089Z,0.60
2023-05-12T06:28:00.902Z,0.60
2023-05-12T06:30:28.562Z,0.80
2023-05-12T06:32:56.491Z,0.70
2023-05-12T06:35:23.955Z,0.50
2023-05-12T06:37:51.424Z,0.70
2023-05-12T06:40:18.981Z,0.70
2023-05-12T06:42:46.357Z,0.50
2023-05-12T06:45:13.755Z,0.60
2023-05-12T06:47:41.416Z,0.50
2023-05-12T06:50:09.704Z,0.80
2023-05-12T06:52:37.372Z,0.90
2023-05-12T06:55:05.727Z,0.80
2023-05-12T06:57:33.219Z,0.70
2023-05-12T07:00:02.982Z,0.70
2023-05-12T07:02:30.666Z,0.60
2023-05-12T07:04:58.257Z,0.60
2023-05-12T07:07:25.744Z,0.70
2023-05-12T07:09:53.363Z,0.60
2023-05-12T07:12:20.761Z,0.40
2023-05-12T07:14:48.301Z,0.60
2023-05-12T07:17:15.679Z,0.60
2023-05-12T07:19:43.338Z,0.60
2023-05-12T07:22:10.750Z,0.40
2023-05-12T07:24:38.438Z,0.60
2023-05-12T07:27:05.916Z,0.60
2023-05-12T07:29:33.766Z,0.70
2023-05-12T07:32:01.279Z,5.90
2023-05-12T07:34:28.854Z,1.00
2023-05-12T07:36:56.309Z,12.80
2023-05-12T07:39:25.192Z,16.20
2023-05-12T07:44:21.335Z,2.10
2023-05-12T07:46:48.873Z,1.70
2023-05-12T07:49:16.401Z,1.00
2023-05-12T07:51:43.824Z,1.20
2023-05-12T07:54:11.291Z,1.50
2023-05-12T07:56:38.727Z,17.00
2023-05-12T07:59:06.216Z,30.90
2023-05-12T08:01:34.590Z,23.40
2023-05-12T08:04:02.167Z,12.60
2023-05-12T08:06:29.895Z,4.60
2023-05-12T08:08:58.171Z,6.00
2023-05-12T08:11:26.627Z,7.50
2023-05-12T08:13:54.350Z,5.50
2023-05-12T08:16:22.150Z,6.90
2023-05-12T08:18:49.560Z,1.50
2023-05-12T08:21:17.171Z,4.60
2023-05-12T08:23:45.062Z,5.20
2023-05-12T08:26:12.582Z,1.20
2023-05-12T08:28:40.071Z,2.20
2023-05-12T08:31:07.647Z,1.90
2023-05-12T08:33:36.453Z,10.30
2023-05-12T08:36:04.433Z,1.00
2023-05-12T08:38:32.581Z,7.70
2023-05-12T08:41:19.829Z,1.90
2023-05-12T08:43:52.556Z,5.10
2023-05-12T08:46:20.946Z,5.80
2023-05-12T08:51:20.727Z,3.40
2023-05-12T08:53:50.198Z,6.00
2023-05-12T08:58:53.371Z,7.10
2023-05-12T09:01:21.725Z,9.60
2023-05-12T09:03:52.873Z,4.50
2023-05-12T09:06:22.917Z,3.70
2023-05-12T09:08:51.942Z,3.10
2023-05-12T09:14:12.543Z,7.10
2023-05-12T09:16:43.392Z,2.90
2023-05-12T09:19:11.120Z,2.60
2023-05-12T09:21:38.809Z,4.80
2023-05-12T09:24:08.895Z,3.40
2023-05-12T09:26:46.506Z,5.60
2023-05-12T09:29:24.121Z,3.80
2023-05-12T09:31:58.403Z,8.20
2023-05-12T09:34:32.954Z,11.30
2023-05-12T09:37:02.567Z,10.40
2023-05-12T09:39:30.982Z,9.60
2023-05-12T09:41:58.521Z,7.70
2023-05-12T09:44:28.841Z,10.60
2023-05-12T09:47:05.526Z,3.50
2023-05-12T09:49:33.150Z,2.90
2023-05-12T09:52:00.940Z,1.90
2023-05-12T09:54:29.842Z,5.50
2023-05-12T09:57:02.837Z,6.60
2023-05-12T09:59:35.909Z,3.10
2023-05-12T10:02:06.237Z,4.70
2023-05-12T10:04:49.250Z,2.30
2023-05-12T10:07:18.684Z,2.10
2023-05-12T10:09:49.249Z,2.70
2023-05-12T10:12:17.477Z,3.10
2023-05-12T10:14:46.165Z,3.00
2023-05-12T10:19:42.208Z,1.30
2023-05-12T10:22:14.088Z,1.80
2023-05-12T10:24:41.708Z,1.50
2023-05-12T10:27:11.757Z,2.20
2023-05-12T10:29:40.875Z,1.40
2023-05-12T10:32:09.168Z,1.50
2023-05-12T10:34:37.727Z,0.90
2023-05-12T10:37:11.061Z,1.10
2023-05-12T10:39:50.338Z,1.10
2023-05-12T10:42:26.841Z,0.90
2023-05-12T10:44:56.317Z,0.50
2023-05-12T10:47:26.852Z,0.90
2023-05-12T10:49:59.436Z,1.00
2023-05-12T10:52:27.308Z,0.90
2023-05-12T10:55:04.099Z,0.70
2023-05-12T10:57:33.137Z,0.80
2023-05-12T11:00:03.129Z,0.60
2023-05-12T11:02:34.557Z,1.20
2023-05-12T11:05:12.898Z,1.40
2023-05-12T11:07:50.065Z,0.60
2023-05-12T11:10:19.482Z,0.10
2023-05-12T11:12:49.382Z,1.10
2023-05-12T11:15:18.324Z,0.60
2023-05-12T11:17:46.477Z,1.00
2023-05-12T11:20:24.691Z,0.70
2023-05-12T11:22:54.682Z,0.60
2023-05-12T11:25:22.694Z,0.40
2023-05-12T11:27:51.325Z,1.20
2023-05-12T11:30:19.750Z,0.40
2023-05-12T11:32:47.754Z,0.70
2023-05-12T11:35:17.896Z,0.20
2023-05-12T11:37:46.515Z,0.50
2023-05-12T11:40:20.735Z,0.40
2023-05-12T11:42:55.429Z,0.50
2023-05-12T11:45:30.296Z,0.60
2023-05-12T11:48:11.180Z,0.60
2023-05-12T11:50:40.601Z,0.80
2023-05-12T11:53:14.401Z,0.50
2023-05-12T11:55:53.257Z,0.30
2023-05-12T11:58:30.702Z,0.40
2023-05-12T12:01:10.622Z,0.50
2023-05-12T12:03:49.639Z,0.60
2023-05-12T12:06:18.718Z,0.50
2023-05-12T12:08:54.249Z,0.60
2023-05-12T12:11:26.833Z,1.10
2023-05-12T12:13:58.615Z,1.60
2023-05-12T12:16:31.366Z,1.20
2023-05-12T12:18:59.281Z,1.00
2023-05-12T12:21:26.902Z,1.10
2023-05-12T12:23:54.472Z,1.30
2023-05-12T12:26:22.745Z,1.00
2023-05-12T12:28:50.197Z,1.80
2023-05-12T12:31:17.677Z,1.30
2023-05-12T12:33:45.220Z,1.00
2023-05-12T12:36:12.773Z,0.60
2023-05-12T12:38:40.996Z,0.70
2023-05-12T12:41:08.604Z,0.80
2023-05-12T12:43:36.067Z,0.90
2023-05-12T12:46:03.486Z,0.70
2023-05-12T12:48:32.032Z,0.90
2023-05-12T12:51:00.946Z,0.70
2023-05-12T12:53:28.852Z,1.00
2023-05-12T12:55:56.388Z,0.80
2023-05-12T12:58:23.755Z,0.90
2023-05-12T13:00:51.409Z,0.60
2023-05-12T13:03:20.405Z,0.60
2023-05-12T13:05:48.457Z,0.30
2023-05-12T13:08:19.635Z,0.50
2023-05-12T13:10:47.193Z,0.50
2023-05-12T13:13:14.639Z,0.60
2023-05-12T13:15:42.157Z,0.70
2023-05-12T13:18:09.731Z,0.50
2023-05-12T13:20:37.277Z,0.40
2023-05-12T13:23:04.983Z,0.30
2023-05-12T13:25:32.450Z,0.40
2023-05-12T13:27:59.804Z,0.40
2023-05-12T13:30:27.419Z,0.50
2023-05-12T13:32:55.034Z,0.50
2023-05-12T13:35:22.761Z,0.40
2023-05-12T13:37:50.715Z,0.40
2023-05-12T13:40:18.234Z,0.40
2023-05-12T13:42:45.752Z,0.40
2023-05-12T13:45:13.323Z,0.30
2023-05-12T13:47:40.898Z,0.50
2023-05-12T13:50:09.121Z,0.80
2023-05-12T13:52:36.689Z,0.50
2023-05-12T13:55:04.634Z,0.80
2023-05-12T13:57:31.987Z,0.70
2023-05-12T13:59:59.392Z,0.70
2023-05-12T14:02:26.805Z,1.00
2023-05-12T14:04:55.492Z,0.70
2023-05-12T14:09:50.162Z,0.80
2023-05-12T14:12:17.831Z,0.90
2023-05-12T14:14:49.641Z,0.60
2023-05-12T14:17:18.507Z,0.30
2023-05-12T14:19:46.169Z,0.30
2023-05-12T14:22:25.322Z,0.70
2023-05-12T14:24:55.745Z,0.50
2023-05-12T14:27:23.692Z,0.50
2023-05-12T14:29:51.250Z,0.70
2023-05-12T14:32:18.662Z,0.70
2023-05-12T14:34:46.140Z,0.60
2023-05-12T14:37:13.595Z,0.80
2023-05-12T14:39:41.145Z,0.80
2023-05-12T14:42:09.204Z,0.50
2023-05-12T14:44:37.284Z,0.60
2023-05-12T14:47:06.913Z,0.40
2023-05-12T14:49:35.757Z,0.70
2023-05-12T14:52:03.712Z,0.70
2023-05-12T14:54:33.013Z,0.60
2023-05-12T14:57:00.451Z,0.70
2023-05-12T14:59:30.140Z,0.40
2023-05-12T15:01:57.555Z,0.50
2023-05-12T15:04:26.892Z,0.60
2023-05-12T15:06:55.243Z,0.80
2023-05-12T15:11:51.553Z,0.50
2023-05-12T15:14:19.012Z,0.30
2023-05-12T15:16:46.613Z,0.50
2023-05-12T15:19:15.025Z,0.60
2023-05-12T15:21:42.630Z,0.30
2023-05-12T15:24:10.193Z,0.40
2023-05-12T15:26:40.029Z,0.80
2023-05-12T15:29:08.173Z,0.40
2023-05-12T15:31:35.656Z,0.70
2023-05-12T15:34:03.196Z,0.60
2023-05-12T15:36:30.600Z,0.70
2023-05-12T15:38:58.778Z,0.60
2023-05-12T15:41:26.243Z,0.70
2023-05-12T15:43:53.682Z,0.70
2023-05-12T15:46:22.470Z,0.60
2023-05-12T15:48:49.973Z,0.60
2023-05-12T15:51:17.560Z,0.50
2023-05-12T15:53:45.428Z,1.00
2023-05-12T15:56:12.845Z,0.70
2023-05-12T15:58:40.321Z,0.80
2023-05-12T16:01:07.803Z,0.90
2023-05-12T16:03:35.810Z,0.70
2023-05-12T16:06:03.589Z,0.80
2023-05-12T16:08:32.172Z,0.60
2023-05-12T16:13:27.982Z,1.00
2023-05-12T16:15:55.371Z,1.10
2023-05-12T16:18:22.861Z,0.70
2023-05-12T16:20:50.403Z,0.90
2023-05-12T16:23:18.003Z,0.40
2023-05-12T16:25:45.641Z,0.40
2023-05-12T16:28:13.973Z,0.30
2023-05-12T16:30:41.428Z,0.40
2023-05-12T16:33:09.166Z,0.30
2023-05-12T16:35:38.069Z,0.30
2023-05-12T16:40:33.029Z,0.60
2023-05-12T16:43:00.448Z,0.70
2023-05-12T16:45:27.792Z,0.50
2023-05-12T16:47:55.252Z,0.90
2023-05-12T16:50:22.660Z,0.80
2023-05-12T16:52:50.248Z,0.90
2023-05-12T16:55:17.666Z,0.60
2023-05-12T16:57:45.470Z,0.50
2023-05-12T17:00:14.293Z,0.80
2023-05-12T17:05:09.437Z,0.60
2023-05-12T17:07:36.850Z,1.40
2023-05-12T17:10:04.535Z,0.80
2023-05-12T17:12:32.017Z,0.70
2023-05-12T17:15:06.911Z,0.60
2023-05-12T17:17:36.071Z,0.60
2023-05-12T17:20:03.918Z,0.60
2023-05-12T17:22:32.445Z,0.60
2023-05-12T17:24:59.879Z,0.60
2023-05-12T17:27:27.517Z,0.50
2023-05-12T17:29:54.983Z,0.50
2023-05-12T17:32:22.787Z,0.30
2023-05-12T17:34:51.455Z,0.50
2023-05-12T17:39:46.275Z,0.50
2023-05-12T17:42:14.229Z,0.60
2023-05-12T17:44:41.611Z,0.80
2023-05-12T17:47:14.072Z,0.60
2023-05-12T17:49:42.321Z,0.60
2023-05-12T17:52:09.887Z,0.70
2023-05-12T17:54:37.343Z,0.80
2023-05-12T17:57:05.468Z,0.80
2023-05-12T17:59:32.989Z,0.60
2023-05-12T18:02:00.416Z,0.80
2023-05-12T18:04:27.935Z,0.70
2023-05-12T18:06:56.925Z,0.70
2023-05-12T18:09:24.766Z,0.80
2023-05-12T18:11:52.354Z,0.60
2023-05-12T18:14:19.706Z,0.50
2023-05-12T18:16:47.328Z,0.70
2023-05-12T18:19:14.941Z,0.50
2023-05-12T18:21:42.390Z,0.70
2023-05-12T18:24:09.821Z,0.90
2023-05-12T18:26:37.472Z,0.40
2023-05-12T18:29:04.974Z,0.60
2023-05-12T18:31:35.234Z,0.50
2023-05-12T18:34:02.669Z,0.30
2023-05-12T18:36:30.756Z,0.40
2023-05-12T18:38:58.168Z,0.40
2023-05-12T18:41:25.730Z,0.40
2023-05-12T18:43:53.957Z,0.40
2023-05-12T18:46:21.450Z,0.40
2023-05-12T18:48:48.816Z,0.60
2023-05-12T18:51:16.263Z,0.30
2023-05-12T18:53:43.631Z,0.50
2023-05-12T18:56:11.144Z,0.50
2023-05-12T18:58:38.704Z,0.40
2023-05-12T19:01:06.859Z,0.60
2023-05-12T19:03:34.460Z,0.60
2023-05-12T19:06:01.890Z,0.50
2023-05-12T19:08:29.318Z,0.50
2023-05-12T19:10:56.734Z,0.70
2023-05-12T19:13:24.041Z,0.50
2023-05-12T19:15:51.509Z,0.50
2023-05-12T19:18:18.919Z,0.40
2023-05-12T19:20:46.290Z,0.60
2023-05-12T19:23:14.201Z,0.50
2023-05-12T19:25:42.924Z,0.50
2023-05-12T19:28:11.729Z,0.60
2023-05-12T19:30:39.214Z,0.30
2023-05-12T19:33:07.027Z,0.60
2023-05-12T19:38:03.501Z,0.50
2023-05-12T19:40:30.887Z,0.50
2023-05-12T19:42:58.335Z,0.60
2023-05-12T19:45:25.817Z,0.50
2023-05-12T19:47:53.647Z,0.70
2023-05-12T19:50:21.376Z,0.40
2023-05-12T19:52:48.856Z,0.40
2023-05-12T19:55:16.966Z,0.40
2023-05-12T19:57:44.460Z,0.90
2023-05-12T20:00:13.095Z,0.60
2023-05-12T20:02:41.457Z,0.80
2023-05-12T20:05:09.760Z,0.50
2023-05-12T20:07:37.266Z,0.30
2023-05-12T20:10:04.919Z,0.60
2023-05-12T20:12:32.310Z,0.60
2023-05-12T20:14:59.617Z,0.70
2023-05-12T20:17:27.021Z,0.80
2023-05-12T20:19:54.880Z,0.50
2023-05-12T20:22:22.457Z,0.40
2023-05-12T20:24:50.971Z,0.50
2023-05-12T20:27:18.425Z,0.70
2023-05-12T20:29:45.962Z,0.70
2023-05-12T20:32:14.460Z,0.60
2023-05-12T20:37:09.750Z,1.20
2023-05-12T20:39:37.424Z,1.00
2023-05-12T20:42:05.713Z,0.50
2023-05-12T20:44:33.136Z,0.80
2023-05-12T20:47:00.605Z,1.00
2023-05-12T20:49:28.069Z,0.80
2023-05-12T20:51:55.458Z,0.80
2023-05-12T20:54:22.904Z,0.70
2023-05-12T20:56:50.572Z,1.00
2023-05-12T20:59:18.104Z,0.90
2023-05-12T21:01:45.533Z,0.90
2023-05-12T21:04:13.387Z,1.00
2023-05-12T21:06:40.924Z,0.90
2023-05-12T21:09:08.516Z,0.80
2023-05-12T21:11:35.905Z,0.60
2023-05-12T21:14:03.765Z,0.70
2023-05-12T21:16:31.127Z,0.90
2023-05-12T21:18:58.587Z,0.70
2023-05-12T21:21:26.061Z,0.80
2023-05-12T21:23:53.449Z,0.60
2023-05-12T21:26:21.050Z,0.80
2023-05-12T21:28:48.340Z,0.70
2023-05-12T21:31:15.749Z,0.80
2023-05-12T21:33:43.170Z,0.60
2023-05-12T21:36:10.509Z,0.70
2023-05-12T21:38:37.876Z,0.80
2023-05-12T21:41:05.264Z,0.60
2023-05-12T21:43:32.724Z,0.60
2023-05-12T21:46:04.731Z,0.40
2023-05-12T21:48:33.202Z,0.50
2023-05-12T21:51:02.596Z,0.50
2023-05-12T21:53:30.320Z,0.70
2023-05-12T21:55:57.834Z,0.70
2023-05-12T21:58:26.089Z,0.70
2023-05-12T22:00:53.670Z,0.70
2023-05-12T22:03:21.680Z,0.80
2023-05-12T22:05:49.772Z,0.80
2023-05-12T22:08:18.831Z,0.90
2023-05-12T22:10:46.792Z,1.20
2023-05-12T22:13:15.090Z,0.80
2023-05-12T22:15:42.397Z,0.80
2023-05-12T22:18:09.808Z,0.80
2023-05-12T22:20:37.188Z,0.90
2023-05-12T22:23:05.117Z,0.80
2023-05-12T22:25:32.433Z,0.90
2023-05-12T22:27:59.765Z,1.00
2023-05-12T22:30:27.501Z,1.00
2023-05-12T22:32:55.033Z,0.90
2023-05-12T22:35:22.610Z,0.80
2023-05-12T22:37:50.273Z,0.90
2023-05-12T22:40:21.172Z,0.80
2023-05-12T22:42:48.770Z,0.90
2023-05-12T22:45:16.356Z,0.60
2023-05-12T22:47:44.009Z,1.00
2023-05-12T22:50:11.400Z,0.80
2023-05-12T22:52:38.735Z,1.00
2023-05-12T22:55:06.619Z,1.00
2023-05-12T22:57:33.958Z,1.00
2023-05-12T23:00:01.309Z,1.10
2023-05-12T23:02:28.791Z,0.90
2023-05-12T23:04:56.268Z,1.00
2023-05-12T23:07:23.647Z,0.80
2023-05-12T23:09:51.022Z,0.90
2023-05-12T23:12:18.332Z,1.00
2023-05-12T23:14:45.615Z,1.10
2023-05-12T23:17:12.999Z,0.80
2023-05-12T23:19:40.572Z,1.10
2023-05-12T23:22:07.931Z,1.00
2023-05-12T23:24:36.176Z,1.10
2023-05-12T23:27:04.249Z,1.10
2023-05-12T23:29:33.916Z,1.00
2023-05-12T23:32:01.758Z,0.90
2023-05-12T23:34:29.158Z,0.90
2023-05-12T23:36:56.528Z,0.90
2023-05-12T23:39:24.002Z,1.10
2023-05-12T23:41:51.370Z,1.20
2023-05-12T23:44:18.836Z,1.10
2023-05-12T23:46:46.653Z,1.20
2023-05-12T23:49:14.355Z,1.00
2023-05-12T23:51:41.791Z,1.10
2023-05-12T23:54:09.405Z,1.10
2023-05-12T23:56:36.800Z,1.20
2023-05-12T23:59:04.222Z,0.80
